createdAt,value
2018-12-06T00:01:01.387Z,83.97
2018-12-06T00:03:44.258Z,84.57
2018-12-06T00:06:28.127Z,84.85
2018-12-06T00:09:09.916Z,85.28
2018-12-06T00:11:52.643Z,85.52
2018-12-06T00:14:35.499Z,86.08
2018-12-06T00:17:18.424Z,86.10
2018-12-06T00:20:00.918Z,85.70
2018-12-06T00:22:43.527Z,86.40
2018-12-06T00:25:27.144Z,86.18
2018-12-06T00:28:10.200Z,86.95
2018-12-06T00:30:51.731Z,86.80
2018-12-06T00:33:34.447Z,86.53
2018-12-06T00:36:16.585Z,87.93
2018-12-06T00:38:59.255Z,88.72
2018-12-06T00:41:41.721Z,89.96
2018-12-06T00:44:23.879Z,90.42
2018-12-06T00:47:06.337Z,91.01
2018-12-06T00:49:49.252Z,91.04
2018-12-06T00:52:31.323Z,91.18
2018-12-06T00:55:13.896Z,91.82
2018-12-06T00:57:57.047Z,92.26
2018-12-06T01:00:38.895Z,92.68
2018-12-06T01:03:20.444Z,92.53
2018-12-06T01:06:03.128Z,93.01
2018-12-06T01:08:45.334Z,92.85
2018-12-06T01:11:27.107Z,92.33
2018-12-06T01:14:09.545Z,93.32
2018-12-06T01:16:51.745Z,93.40
2018-12-06T01:19:34.806Z,93.62
2018-12-06T01:22:17.042Z,94.00
2018-12-06T01:24:59.176Z,94.13
2018-12-06T01:27:41.848Z,94.28
2018-12-06T01:30:24.327Z,94.70
2018-12-06T01:33:06.460Z,94.33
2018-12-06T01:35:48.787Z,95.01
2018-12-06T01:38:32.536Z,94.55
2018-12-06T01:41:14.556Z,94.95
2018-12-06T01:43:57.163Z,93.93
2018-12-06T01:46:39.411Z,94.13
2018-12-06T01:49:21.875Z,93.90
2018-12-06T01:52:04.337Z,94.05
2018-12-06T01:54:47.072Z,94.05
2018-12-06T01:57:29.203Z,94.12
2018-12-06T02:00:12.097Z,93.88
2018-12-06T02:02:54.343Z,93.86
2018-12-06T02:05:36.418Z,93.57
2018-12-06T02:08:18.892Z,93.29
2018-12-06T02:11:01.236Z,93.32
2018-12-06T02:13:42.936Z,93.56
2018-12-06T02:16:25.446Z,93.25
2018-12-06T02:19:08.209Z,93.56
2018-12-06T02:21:50.356Z,93.83
2018-12-06T02:24:32.874Z,93.13
2018-12-06T02:27:16.169Z,93.20
2018-12-06T02:29:57.712Z,93.32
2018-12-06T02:32:41.832Z,93.28
2018-12-06T02:35:23.726Z,93.56
2018-12-06T02:38:06.184Z,92.86
2018-12-06T02:40:49.784Z,93.46
2018-12-06T02:43:32.174Z,93.12
2018-12-06T02:46:13.765Z,92.61
2018-12-06T02:48:56.226Z,92.60
2018-12-06T02:51:38.548Z,91.77
2018-12-06T02:54:20.972Z,91.97
2018-12-06T02:57:04.027Z,91.58
2018-12-06T02:59:45.844Z,91.74
2018-12-06T03:02:28.502Z,91.34
2018-12-06T03:05:11.384Z,91.27
2018-12-06T03:07:53.263Z,90.90
2018-12-06T03:10:35.656Z,90.88
2018-12-06T03:13:18.444Z,91.15
2018-12-06T03:16:00.507Z,90.83
2018-12-06T03:18:42.615Z,90.64
2018-12-06T03:21:25.143Z,90.35
2018-12-06T03:24:07.207Z,90.75
2018-12-06T03:26:49.845Z,90.29
2018-12-06T03:29:32.202Z,90.73
2018-12-06T03:32:14.705Z,90.68
2018-12-06T03:34:57.002Z,90.29
2018-12-06T03:37:38.622Z,89.46
2018-12-06T03:40:21.075Z,89.92
2018-12-06T03:43:03.516Z,90.38
2018-12-06T03:45:45.901Z,89.91
2018-12-06T03:48:28.475Z,89.42
2018-12-06T03:51:10.830Z,89.31
2018-12-06T03:53:53.661Z,89.65
2018-12-06T03:56:35.679Z,89.41
2018-12-06T03:59:18.033Z,89.78
2018-12-06T04:01:59.670Z,89.54
2018-12-06T04:04:42.420Z,89.53
2018-12-06T04:07:24.408Z,89.30
2018-12-06T04:10:07.604Z,89.57
2018-12-06T04:12:49.468Z,89.76
2018-12-06T04:15:32.086Z,90.20
2018-12-06T04:18:14.291Z,90.86
2018-12-06T04:20:56.721Z,91.77
2018-12-06T04:23:39.163Z,92.34
2018-12-06T04:26:21.716Z,92.82
2018-12-06T04:29:04.132Z,92.47
2018-12-06T04:31:46.468Z,93.04
2018-12-06T04:34:27.990Z,93.19
2018-12-06T04:37:10.427Z,92.86
2018-12-06T04:39:52.815Z,93.01
2018-12-06T04:42:35.374Z,92.86
2018-12-06T04:45:17.800Z,92.53
2018-12-06T04:48:00.301Z,92.28
2018-12-06T04:50:42.724Z,91.94
2018-12-06T04:53:25.219Z,91.58
2018-12-06T04:56:07.491Z,91.66
2018-12-06T04:58:50.333Z,90.98
2018-12-06T05:01:32.415Z,91.11
2018-12-06T05:04:14.135Z,90.80
2018-12-06T05:06:56.874Z,90.80
2018-12-06T05:09:38.754Z,90.66
2018-12-06T05:12:21.191Z,90.88
2018-12-06T05:15:02.787Z,90.24
2018-12-06T05:17:45.112Z,89.55
2018-12-06T05:20:26.703Z,89.81
2018-12-06T05:23:09.183Z,89.75
2018-12-06T05:25:52.597Z,89.63
2018-12-06T05:28:34.172Z,89.65
2018-12-06T05:31:16.723Z,89.59
2018-12-06T05:33:58.970Z,89.81
2018-12-06T05:36:41.364Z,90.03
2018-12-06T05:39:23.739Z,90.00
2018-12-06T05:42:42.601Z,89.73
2018-12-06T05:45:25.843Z,89.99
2018-12-06T05:48:08.976Z,90.19
2018-12-06T05:50:51.616Z,90.21
2018-12-06T05:53:34.821Z,90.85
2018-12-06T05:56:18.749Z,91.28
2018-12-06T05:59:01.360Z,92.55
2018-12-06T06:01:43.447Z,92.49
2018-12-06T06:04:26.800Z,92.62
2018-12-06T06:07:10.154Z,93.44
2018-12-06T06:09:53.949Z,93.95
2018-12-06T06:12:37.818Z,94.33
2018-12-06T06:15:19.911Z,94.87
2018-12-06T06:18:04.563Z,95.31
2018-12-06T06:20:47.125Z,95.27
2018-12-06T06:23:29.778Z,95.87
2018-12-06T06:26:12.759Z,96.66
2018-12-06T06:28:54.798Z,97.22
2018-12-06T06:31:37.985Z,97.42
2018-12-06T06:34:47.151Z,98.04
2018-12-06T06:41:06.530Z,98.52
2018-12-06T06:43:48.564Z,98.79
2018-12-06T06:46:31.996Z,98.98
2018-12-06T06:49:15.254Z,99.14
2018-12-06T06:51:57.514Z,99.17
2018-12-06T06:54:41.217Z,99.39
2018-12-06T06:57:28.031Z,99.38
2018-12-06T07:00:16.183Z,99.13
2018-12-06T07:03:00.030Z,99.14
2018-12-06T07:05:44.375Z,98.87
2018-12-06T07:08:27.420Z,99.35
2018-12-06T07:11:10.263Z,99.17
2018-12-06T07:13:54.247Z,98.72
2018-12-06T07:16:36.942Z,99.37
2018-12-06T07:19:19.247Z,98.93
2018-12-06T07:22:02.024Z,99.25
2018-12-06T07:24:44.076Z,98.78
2018-12-06T07:27:27.963Z,98.87
2018-12-06T07:30:12.503Z,98.80
2018-12-06T07:32:55.903Z,99.22
2018-12-06T07:35:42.179Z,99.27
2018-12-06T07:38:25.240Z,99.04
2018-12-06T07:41:07.567Z,98.88
2018-12-06T07:43:49.919Z,98.87
2018-12-06T07:46:35.787Z,98.96
2018-12-06T07:49:18.179Z,98.98
2018-12-06T07:52:00.836Z,98.99
2018-12-06T07:54:46.372Z,98.85
2018-12-06T07:57:30.292Z,98.90
2018-12-06T08:00:14.875Z,99.06
2018-12-06T08:02:59.190Z,99.24
2018-12-06T08:05:43.427Z,99.03
2018-12-06T08:08:25.336Z,99.38
2018-12-06T08:11:08.144Z,99.23
2018-12-06T08:13:51.231Z,99.37
2018-12-06T08:16:37.200Z,99.09
2018-12-06T08:19:21.165Z,99.23
2018-12-06T08:22:04.193Z,99.66
2018-12-06T08:24:49.058Z,99.16
2018-12-06T08:27:42.424Z,99.61
2018-12-06T08:30:29.563Z,99.23
2018-12-06T08:33:12.238Z,99.37
2018-12-06T08:35:57.103Z,99.15
2018-12-06T08:38:39.728Z,99.27
2018-12-06T08:41:24.743Z,98.76
2018-12-06T08:44:08.047Z,99.29
2018-12-06T08:46:50.299Z,98.90
2018-12-06T08:49:32.883Z,98.98
2018-12-06T08:52:15.705Z,98.82
2018-12-06T08:54:58.602Z,99.09
2018-12-06T08:57:42.683Z,99.22
2018-12-06T09:00:25.591Z,98.76
2018-12-06T09:03:09.538Z,98.67
2018-12-06T09:05:53.559Z,98.95
2018-12-06T09:08:36.043Z,98.68
2018-12-06T09:11:18.925Z,98.37
2018-12-06T09:14:01.828Z,98.82
2018-12-06T09:16:43.787Z,98.66
2018-12-06T09:19:29.259Z,98.66
2018-12-06T09:22:12.182Z,98.77
2018-12-06T09:24:55.922Z,98.48
2018-12-06T09:27:41.626Z,98.49
2018-12-06T09:30:23.716Z,98.49
2018-12-06T09:33:07.997Z,98.11
2018-12-06T09:35:53.791Z,98.23
2018-12-06T09:38:36.592Z,98.04
2018-12-06T09:41:19.623Z,98.06
2018-12-06T09:44:03.304Z,98.40
2018-12-06T09:46:46.945Z,98.08
2018-12-06T09:49:30.086Z,98.12
2018-12-06T09:52:12.231Z,98.08
2018-12-06T09:54:55.814Z,98.06
2018-12-06T09:57:39.599Z,97.64
2018-12-06T10:00:22.652Z,97.92
2018-12-06T10:03:05.443Z,98.07
2018-12-06T10:05:47.547Z,98.21
2018-12-06T10:08:30.971Z,98.17
2018-12-06T10:11:15.039Z,98.28
2018-12-06T10:13:59.190Z,98.27
2018-12-06T10:16:48.043Z,98.47
2018-12-06T10:19:30.632Z,98.39
2018-12-06T10:22:14.208Z,98.29
2018-12-06T10:24:56.866Z,98.90
2018-12-06T10:27:41.752Z,98.79
2018-12-06T10:30:24.674Z,98.70
2018-12-06T10:33:08.691Z,98.62
2018-12-06T10:35:51.589Z,98.69
2018-12-06T10:38:34.071Z,98.44
2018-12-06T10:41:16.947Z,98.72
2018-12-06T10:43:59.177Z,98.41
2018-12-06T10:46:43.004Z,98.36
2018-12-06T10:49:26.899Z,98.59
2018-12-06T10:52:09.153Z,98.83
2018-12-06T10:54:54.190Z,98.49
2018-12-06T10:57:38.304Z,98.78
2018-12-06T11:00:27.595Z,98.54
2018-12-06T11:03:14.246Z,98.79
2018-12-06T11:06:07.299Z,98.71
2018-12-06T11:08:51.736Z,98.43
2018-12-06T11:11:35.220Z,98.65
2018-12-06T11:14:18.153Z,98.97
2018-12-06T11:17:00.967Z,98.93
2018-12-06T11:19:45.816Z,98.81
2018-12-06T11:22:28.718Z,98.58
2018-12-06T11:25:11.260Z,98.68
2018-12-06T11:27:53.526Z,98.73
2018-12-06T11:30:37.658Z,98.94
2018-12-06T11:33:19.573Z,98.75
2018-12-06T11:36:05.013Z,99.25
2018-12-06T11:38:47.991Z,99.17
2018-12-06T11:41:30.506Z,99.25
2018-12-06T11:44:15.245Z,98.91
2018-12-06T11:46:58.693Z,98.83
2018-12-06T11:49:41.191Z,99.34
2018-12-06T11:52:23.987Z,99.07
2018-12-06T11:55:07.607Z,99.29
2018-12-06T11:57:50.836Z,99.44
2018-12-06T12:00:32.843Z,99.16
2018-12-06T12:03:16.258Z,99.34
2018-12-06T12:05:59.234Z,99.11
2018-12-06T12:08:41.321Z,99.03
2018-12-06T12:11:26.561Z,99.30
2018-12-06T12:14:09.570Z,99.10
2018-12-06T12:16:53.047Z,98.94
2018-12-06T12:19:35.928Z,99.09
2018-12-06T12:22:17.996Z,99.63
2018-12-06T12:25:01.667Z,99.36
2018-12-06T12:27:45.987Z,99.10
2018-12-06T12:30:35.958Z,99.13
2018-12-06T12:33:26.622Z,99.57
2018-12-06T12:36:10.548Z,99.58
2018-12-06T12:38:52.417Z,99.96
2018-12-06T12:41:35.579Z,100.00
2018-12-06T12:44:19.559Z,100.00
2018-12-06T12:47:02.737Z,100.00
2018-12-06T12:49:46.179Z,100.00
2018-12-06T12:52:28.963Z,100.00
2018-12-06T12:55:12.696Z,100.00
2018-12-06T12:57:56.992Z,100.00
2018-12-06T13:00:39.400Z,99.92
2018-12-06T13:03:22.446Z,99.90
2018-12-06T13:06:06.364Z,99.71
2018-12-06T13:08:48.770Z,99.56
2018-12-06T13:11:33.435Z,98.84
2018-12-06T13:14:17.271Z,98.47
2018-12-06T13:16:59.896Z,98.54
2018-12-06T13:19:42.396Z,98.20
2018-12-06T13:22:25.334Z,97.83
2018-12-06T13:25:08.367Z,97.75
2018-12-06T13:27:51.788Z,97.69
2018-12-06T13:30:34.405Z,97.10
2018-12-06T13:33:20.086Z,97.37
2018-12-06T13:36:02.018Z,97.36
2018-12-06T13:38:47.161Z,96.81
2018-12-06T13:41:29.972Z,96.49
2018-12-06T13:44:14.540Z,96.82
2018-12-06T13:46:58.979Z,96.95
2018-12-06T13:49:42.013Z,96.82
2018-12-06T13:52:24.575Z,96.45
2018-12-06T13:55:08.373Z,96.88
2018-12-06T13:57:52.230Z,96.80
2018-12-06T14:00:36.147Z,96.98
2018-12-06T14:03:19.557Z,96.76
2018-12-06T14:06:04.109Z,96.40
2018-12-06T14:08:47.436Z,96.65
2018-12-06T14:11:32.721Z,96.56
2018-12-06T14:14:15.610Z,96.91
2018-12-06T14:16:58.963Z,96.53
2018-12-06T14:19:40.992Z,96.57
2018-12-06T14:22:25.119Z,96.28
2018-12-06T14:25:08.563Z,96.08
2018-12-06T14:27:52.404Z,96.06
2018-12-06T14:30:37.895Z,95.72
2018-12-06T14:33:36.829Z,95.85
2018-12-06T14:36:20.397Z,95.76
2018-12-06T14:39:06.313Z,95.70
2018-12-06T14:41:49.094Z,95.70
2018-12-06T14:44:32.963Z,95.33
2018-12-06T14:47:15.704Z,95.51
2018-12-06T14:49:59.620Z,95.60
2018-12-06T14:52:43.183Z,95.40
2018-12-06T14:55:26.558Z,95.40
2018-12-06T14:58:11.544Z,94.71
2018-12-06T15:00:57.631Z,94.45
2018-12-06T15:03:42.215Z,94.09
2018-12-06T15:06:28.078Z,94.44
2018-12-06T15:09:14.121Z,94.78
2018-12-06T15:11:58.731Z,94.40
2018-12-06T15:14:42.331Z,94.24
2018-12-06T15:17:26.675Z,93.88
2018-12-06T15:20:12.903Z,94.10
2018-12-06T15:22:57.000Z,93.94
2018-12-06T15:25:42.149Z,94.20
2018-12-06T15:28:26.618Z,94.22
2018-12-06T15:31:10.013Z,94.20
2018-12-06T15:33:56.044Z,94.11
2018-12-06T15:36:40.461Z,93.81
2018-12-06T15:39:28.229Z,94.08
2018-12-06T15:42:12.824Z,94.01
2018-12-06T15:45:19.275Z,94.06
2018-12-06T15:48:04.295Z,94.07
2018-12-06T15:50:48.637Z,93.82
2018-12-06T15:53:35.125Z,93.67
2018-12-06T15:56:18.889Z,93.47
2018-12-06T15:59:03.830Z,92.67
2018-12-06T16:01:47.562Z,93.32
2018-12-06T16:04:32.075Z,93.41
2018-12-06T16:07:15.605Z,93.49
2018-12-06T16:09:59.597Z,93.58
2018-12-06T16:12:43.399Z,93.33
2018-12-06T16:15:27.629Z,93.35
2018-12-06T16:18:13.083Z,93.31
2018-12-06T16:21:01.396Z,93.34
2018-12-06T16:23:44.277Z,93.01
2018-12-06T16:26:29.239Z,93.06
2018-12-06T16:29:12.522Z,93.33
2018-12-06T16:31:56.617Z,92.90
2018-12-06T16:34:40.047Z,92.57
2018-12-06T16:37:26.121Z,92.52
2018-12-06T16:40:08.981Z,92.66
2018-12-06T16:42:52.640Z,92.35
2018-12-06T16:45:37.654Z,92.13
2018-12-06T16:48:23.985Z,92.01
2018-12-06T16:51:08.959Z,92.20
2018-12-06T16:53:55.488Z,92.19
2018-12-06T16:56:40.940Z,91.19
2018-12-06T16:59:24.732Z,91.24
2018-12-06T17:02:07.204Z,91.51
2018-12-06T17:04:50.941Z,91.04
2018-12-06T17:07:34.806Z,91.42
2018-12-06T17:10:22.759Z,91.19
2018-12-06T17:13:06.599Z,91.15
2018-12-06T17:15:51.749Z,90.78
2018-12-06T17:18:35.409Z,90.77
2018-12-06T17:21:19.044Z,91.00
2018-12-06T17:24:02.695Z,90.95
2018-12-06T17:26:53.012Z,90.79
2018-12-06T17:29:42.328Z,90.18
2018-12-06T17:32:25.806Z,90.24
2018-12-06T17:35:10.477Z,90.70
2018-12-06T17:37:55.848Z,90.31
2018-12-06T17:40:40.110Z,90.18
2018-12-06T17:43:23.928Z,90.25
2018-12-06T17:46:08.903Z,89.93
2018-12-06T17:48:52.822Z,90.22
2018-12-06T17:51:37.094Z,90.28
2018-12-06T17:54:24.236Z,90.10
2018-12-06T17:57:07.436Z,90.48
2018-12-06T17:59:50.736Z,90.41
2018-12-06T18:02:36.557Z,91.03
2018-12-06T18:05:20.297Z,90.66
2018-12-06T18:08:05.484Z,91.04
2018-12-06T18:10:50.187Z,91.15
2018-12-06T18:13:35.148Z,91.29
2018-12-06T18:16:19.706Z,91.91
2018-12-06T18:19:03.855Z,92.17
2018-12-06T18:21:47.115Z,91.74
2018-12-06T18:24:32.366Z,91.70
2018-12-06T18:27:16.987Z,91.71
2018-12-06T18:30:00.895Z,91.56
2018-12-06T18:32:45.113Z,91.55
2018-12-06T18:35:29.869Z,91.15
2018-12-06T18:38:14.459Z,91.69
2018-12-06T18:40:57.427Z,91.86
2018-12-06T18:43:43.389Z,91.64
2018-12-06T18:46:27.977Z,91.29
2018-12-06T18:49:13.341Z,91.57
2018-12-06T18:51:57.872Z,91.61
2018-12-06T18:54:41.659Z,91.47
2018-12-06T18:57:24.371Z,91.50
2018-12-06T19:00:11.725Z,91.82
2018-12-06T19:02:56.436Z,91.56
2018-12-06T19:05:39.974Z,91.37
2018-12-06T19:08:26.938Z,91.32
2018-12-06T19:11:11.716Z,91.58
2018-12-06T19:13:55.258Z,91.05
2018-12-06T19:16:38.917Z,90.97
2018-12-06T19:19:24.129Z,91.03
2018-12-06T19:22:08.932Z,91.07
2018-12-06T19:24:53.432Z,90.56
2018-12-06T19:27:39.609Z,91.07
2018-12-06T19:30:23.852Z,91.08
2018-12-06T19:33:08.606Z,91.46
2018-12-06T19:35:52.803Z,91.10
2018-12-06T19:38:37.051Z,91.48
2018-12-06T19:41:20.837Z,91.87
2018-12-06T19:44:04.486Z,91.74
2018-12-06T19:46:50.154Z,91.81
2018-12-06T19:49:34.915Z,92.13
2018-12-06T19:52:19.097Z,92.00
2018-12-06T19:55:02.214Z,92.14
2018-12-06T19:57:46.874Z,92.25
2018-12-06T20:00:31.028Z,92.29
2018-12-06T20:03:14.582Z,92.45
2018-12-06T20:05:59.713Z,92.80
2018-12-06T20:08:45.645Z,92.36
2018-12-06T20:11:30.248Z,92.97
2018-12-06T20:14:15.593Z,93.13
2018-12-06T20:17:02.716Z,93.56
2018-12-06T20:19:46.694Z,93.51
2018-12-06T20:22:33.204Z,93.81
2018-12-06T20:25:16.794Z,94.27
2018-12-06T20:28:00.917Z,94.09
2018-12-06T20:30:45.372Z,94.12
2018-12-06T20:33:28.820Z,93.89
2018-12-06T20:36:14.225Z,94.13
2018-12-06T20:38:57.099Z,94.18
2018-12-06T20:41:45.161Z,93.83
2018-12-06T20:44:28.672Z,94.22
2018-12-06T20:47:16.897Z,94.04
2018-12-06T20:50:00.072Z,93.93
2018-12-06T20:52:43.598Z,94.22
2018-12-06T20:55:27.909Z,94.50
2018-12-06T20:58:15.223Z,94.25
2018-12-06T21:01:00.487Z,94.48
2018-12-06T21:03:46.052Z,94.48
2018-12-06T21:06:30.279Z,94.61
2018-12-06T21:09:13.841Z,94.87
2018-12-06T21:11:55.812Z,94.69
2018-12-06T21:14:39.043Z,94.67
2018-12-06T21:17:24.558Z,94.64
2018-12-06T21:20:09.439Z,94.61
2018-12-06T21:22:52.863Z,94.37
2018-12-06T21:25:35.991Z,94.64
2018-12-06T21:28:19.112Z,94.55
2018-12-06T21:31:03.410Z,94.72
2018-12-06T21:33:47.249Z,94.42
2018-12-06T21:36:31.197Z,94.15
2018-12-06T21:39:14.370Z,94.32
2018-12-06T21:41:57.265Z,94.59
2018-12-06T21:44:39.919Z,93.99
2018-12-06T21:47:29.590Z,93.89
2018-12-06T21:50:16.866Z,94.02
2018-12-06T21:53:04.791Z,93.53
2018-12-06T21:55:56.165Z,93.18
2018-12-06T21:58:50.459Z,93.52
2018-12-06T22:01:35.212Z,93.21
2018-12-06T22:04:17.475Z,93.30
2018-12-06T22:07:01.842Z,93.13
2018-12-06T22:09:45.478Z,92.85
2018-12-06T22:12:27.851Z,92.84
2018-12-06T22:15:11.994Z,92.55
2018-12-06T22:17:55.270Z,92.49
2018-12-06T22:20:37.705Z,92.54
2018-12-06T22:23:21.623Z,92.40
2018-12-06T22:26:04.447Z,92.33
2018-12-06T22:28:47.824Z,92.33
2018-12-06T22:31:32.889Z,92.46
2018-12-06T22:34:15.324Z,92.28
2018-12-06T22:36:58.612Z,92.29
2018-12-06T22:39:43.143Z,92.49
2018-12-06T22:42:26.723Z,92.46
2018-12-06T22:45:25.717Z,92.30
2018-12-06T22:48:09.336Z,92.33
2018-12-06T22:50:51.924Z,92.29
2018-12-06T22:53:35.067Z,92.61
2018-12-06T22:56:17.899Z,93.36
2018-12-06T22:59:00.202Z,93.44
2018-12-06T23:01:44.215Z,93.19
2018-12-06T23:04:26.503Z,93.33
2018-12-06T23:07:09.747Z,93.17
2018-12-06T23:09:53.489Z,93.47
2018-12-06T23:12:35.514Z,94.01
2018-12-06T23:15:20.082Z,94.71
2018-12-06T23:18:03.273Z,95.28
2018-12-06T23:20:45.775Z,96.01
2018-12-06T23:23:28.020Z,96.22
2018-12-06T23:26:10.795Z,96.27
2018-12-06T23:28:53.158Z,96.80
2018-12-06T23:31:36.810Z,96.72
2018-12-06T23:34:19.147Z,96.98
2018-12-06T23:37:01.903Z,97.39
2018-12-06T23:39:44.181Z,97.57
2018-12-06T23:42:27.667Z,97.90
2018-12-06T23:45:12.155Z,97.93
2018-12-06T23:47:56.041Z,98.22
2018-12-06T23:50:38.431Z,98.21
2018-12-06T23:53:20.749Z,98.51
2018-12-06T23:56:03.569Z,98.42
2018-12-06T23:58:46.172Z,98.33
